createdAt,value
2018-12-12T00:00:04.120Z,14.33
2018-12-12T00:02:32.467Z,12.30
2018-12-12T00:05:00.709Z,13.30
2018-12-12T00:07:29.205Z,13.37
2018-12-12T00:09:57.457Z,11.40
2018-12-12T00:12:25.799Z,12.17
2018-12-12T00:14:54.086Z,13.17
2018-12-12T00:17:22.320Z,12.60
2018-12-12T00:19:50.568Z,13.40
2018-12-12T00:22:18.855Z,13.53
2018-12-12T00:24:47.145Z,14.03
2018-12-12T00:27:15.380Z,13.00
2018-12-12T00:29:43.636Z,13.07
2018-12-12T00:32:12.298Z,15.27
2018-12-12T00:34:40.584Z,14.70
2018-12-12T00:37:08.872Z,13.10
2018-12-12T00:39:37.146Z,13.23
2018-12-12T00:42:05.411Z,13.90
2018-12-12T00:44:33.702Z,14.93
2018-12-12T00:47:02.195Z,12.73
2018-12-12T00:49:30.545Z,15.53
2018-12-12T00:51:58.834Z,16.20
2018-12-12T00:54:27.099Z,14.57
2018-12-12T00:56:55.374Z,15.60
2018-12-12T00:59:23.659Z,16.70
2018-12-12T01:01:51.902Z,14.23
2018-12-12T01:04:20.154Z,15.97
2018-12-12T01:06:48.405Z,15.30
2018-12-12T01:09:16.975Z,14.50
2018-12-12T01:11:51.324Z,15.67
2018-12-12T01:14:19.690Z,16.57
2018-12-12T01:16:48.133Z,15.43
2018-12-12T01:19:16.388Z,15.63
2018-12-12T01:21:44.712Z,15.40
2018-12-12T01:24:13.031Z,16.60
2018-12-12T01:26:41.279Z,16.47
2018-12-12T01:29:10.120Z,15.67
2018-12-12T01:31:38.422Z,16.10
2018-12-12T01:34:06.684Z,15.90
2018-12-12T01:36:34.923Z,15.30
2018-12-12T01:39:05.936Z,15.57
2018-12-12T01:41:34.443Z,16.50
2018-12-12T01:44:02.718Z,15.57
2018-12-12T01:46:31.372Z,15.70
2018-12-12T01:48:59.613Z,15.77
2018-12-12T01:51:27.856Z,15.97
2018-12-12T01:53:56.096Z,16.07
2018-12-12T01:56:24.421Z,16.33
2018-12-12T01:58:52.712Z,16.47
2018-12-12T02:01:20.994Z,16.70
2018-12-12T02:03:49.511Z,19.70
2018-12-12T02:06:17.783Z,15.70
2018-12-12T02:08:46.290Z,16.07
2018-12-12T02:11:15.586Z,17.30
2018-12-12T02:13:43.831Z,18.63
2018-12-12T02:16:12.382Z,15.93
2018-12-12T02:18:41.593Z,17.23
2018-12-12T02:21:09.847Z,16.93
2018-12-12T02:23:38.175Z,17.37
2018-12-12T02:26:06.480Z,17.33
2018-12-12T02:28:34.809Z,16.80
2018-12-12T02:31:03.044Z,18.73
2018-12-12T02:33:31.382Z,18.43
2018-12-12T02:35:59.731Z,18.30
2018-12-12T02:38:27.963Z,19.50
2018-12-12T02:40:56.786Z,16.90
2018-12-12T02:43:25.105Z,18.40
2018-12-12T02:45:53.474Z,17.43
2018-12-12T02:48:22.725Z,17.00
2018-12-12T02:50:52.977Z,18.03
2018-12-12T02:53:21.303Z,17.77
2018-12-12T02:55:49.576Z,17.57
2018-12-12T02:58:17.855Z,17.87
2018-12-12T03:00:46.100Z,17.47
2018-12-12T03:03:14.334Z,17.47
2018-12-12T03:05:42.586Z,18.00
2018-12-12T03:08:10.848Z,16.80
2018-12-12T03:10:39.124Z,16.67
2018-12-12T03:13:07.367Z,17.23
2018-12-12T03:15:35.684Z,15.37
2018-12-12T03:18:03.985Z,17.13
2018-12-12T03:20:32.356Z,17.20
2018-12-12T03:23:00.627Z,16.67
2018-12-12T03:25:28.874Z,16.80
2018-12-12T03:27:57.135Z,16.20
2018-12-12T03:30:25.492Z,15.20
2018-12-12T03:32:53.813Z,16.47
2018-12-12T03:35:22.096Z,16.20
2018-12-12T03:37:50.333Z,16.47
2018-12-12T03:40:19.093Z,17.20
2018-12-12T03:42:47.670Z,17.93
2018-12-12T03:45:16.009Z,16.90
2018-12-12T03:47:44.323Z,18.47
2018-12-12T03:50:12.670Z,17.30
2018-12-12T03:52:40.949Z,14.50
2018-12-12T03:55:09.324Z,18.90
2018-12-12T03:57:37.630Z,16.40
2018-12-12T04:00:06.163Z,16.77
2018-12-12T04:02:34.775Z,16.50
2018-12-12T04:05:03.208Z,18.10
2018-12-12T04:07:31.492Z,17.67
2018-12-12T04:09:59.769Z,17.97
2018-12-12T04:12:28.131Z,17.40
2018-12-12T04:14:56.483Z,16.67
2018-12-12T04:17:24.795Z,16.07
2018-12-12T04:19:54.052Z,16.50
2018-12-12T04:22:22.492Z,16.03
2018-12-12T04:24:51.116Z,16.97
2018-12-12T04:27:19.398Z,17.03
2018-12-12T04:29:47.671Z,18.57
2018-12-12T04:32:15.995Z,16.20
2018-12-12T04:34:44.308Z,17.50
2018-12-12T04:37:12.627Z,17.93
2018-12-12T04:39:40.860Z,16.63
2018-12-12T04:42:09.118Z,19.00
2018-12-12T04:44:37.576Z,17.93
2018-12-12T04:47:05.857Z,18.50
2018-12-12T04:49:34.164Z,18.30
2018-12-12T04:52:02.440Z,18.27
2018-12-12T04:54:30.692Z,19.10
2018-12-12T04:56:58.955Z,19.60
2018-12-12T04:59:27.288Z,18.97
2018-12-12T05:01:55.558Z,17.70
2018-12-12T05:04:23.851Z,17.57
2018-12-12T05:06:52.075Z,18.00
2018-12-12T05:09:20.371Z,19.43
2018-12-12T05:11:48.701Z,18.00
2018-12-12T05:14:16.945Z,17.63
2018-12-12T05:16:45.222Z,17.27
2018-12-12T05:19:13.441Z,20.40
2018-12-12T05:21:41.748Z,17.97
2018-12-12T05:24:09.986Z,20.90
2018-12-12T05:26:38.307Z,20.43
2018-12-12T05:29:06.571Z,18.53
2018-12-12T05:31:34.960Z,18.60
2018-12-12T05:34:03.231Z,19.50
2018-12-12T05:36:31.508Z,18.80
2018-12-12T05:38:59.819Z,18.70
2018-12-12T05:41:28.047Z,20.20
2018-12-12T05:43:57.712Z,18.17
2018-12-12T05:46:26.217Z,19.80
2018-12-12T05:48:54.580Z,19.90
2018-12-12T05:51:22.987Z,17.67
2018-12-12T05:53:51.340Z,18.87
2018-12-12T05:56:19.580Z,18.10
2018-12-12T05:58:47.863Z,19.37
2018-12-12T06:01:16.120Z,18.43
2018-12-12T06:03:44.433Z,18.33
2018-12-12T06:06:12.940Z,18.10
2018-12-12T06:08:41.198Z,18.27
2018-12-12T06:11:09.463Z,18.90
2018-12-12T06:13:37.791Z,18.40
2018-12-12T06:16:06.181Z,18.63
2018-12-12T06:18:34.439Z,19.50
2018-12-12T06:21:02.691Z,18.40
2018-12-12T06:23:30.920Z,19.10
2018-12-12T06:25:59.209Z,18.53
2018-12-12T06:28:28.928Z,19.30
2018-12-12T06:30:57.215Z,18.47
2018-12-12T06:33:25.522Z,19.20
2018-12-12T06:35:53.790Z,21.03
2018-12-12T06:38:22.072Z,19.87
2018-12-12T06:40:50.321Z,20.17
2018-12-12T06:43:18.564Z,19.60
2018-12-12T06:45:46.884Z,21.00
2018-12-12T06:48:15.096Z,19.50
2018-12-12T06:50:43.371Z,18.63
2018-12-12T06:53:11.635Z,18.27
2018-12-12T06:55:39.880Z,20.70
2018-12-12T06:58:08.195Z,20.10
2018-12-12T07:00:36.472Z,19.83
2018-12-12T07:03:04.707Z,19.70
2018-12-12T07:05:32.964Z,19.40
2018-12-12T07:08:01.195Z,21.10
2018-12-12T07:10:29.470Z,20.63
2018-12-12T07:12:57.716Z,20.20
2018-12-12T07:15:25.965Z,20.63
2018-12-12T07:17:54.256Z,23.50
2018-12-12T07:20:22.504Z,21.93
2018-12-12T07:22:50.741Z,20.97
2018-12-12T07:25:19.508Z,19.93
2018-12-12T07:27:47.840Z,20.07
2018-12-12T07:30:16.111Z,20.43
2018-12-12T07:32:44.430Z,22.60
2018-12-12T07:35:12.783Z,21.43
2018-12-12T07:37:41.087Z,21.57
2018-12-12T07:40:09.409Z,23.37
2018-12-12T07:42:37.616Z,21.07
2018-12-12T07:45:06.259Z,20.20
2018-12-12T07:47:34.670Z,20.27
2018-12-12T07:50:04.067Z,19.80
2018-12-12T07:52:32.399Z,23.43
2018-12-12T07:55:00.684Z,21.07
2018-12-12T07:57:29.021Z,21.33
2018-12-12T07:59:57.334Z,21.87
2018-12-12T08:02:25.584Z,20.50
2018-12-12T08:04:54.152Z,19.90
2018-12-12T08:07:22.431Z,20.23
2018-12-12T08:09:50.763Z,20.77
2018-12-12T08:12:18.978Z,20.10
2018-12-12T08:14:47.284Z,21.17
2018-12-12T08:17:15.539Z,20.37
2018-12-12T08:19:43.824Z,21.33
2018-12-12T08:22:12.131Z,20.80
2018-12-12T08:24:40.556Z,20.80
2018-12-12T08:27:08.787Z,20.70
2018-12-12T08:29:37.051Z,20.03
2018-12-12T08:32:05.393Z,19.23
2018-12-12T08:34:33.622Z,20.10
2018-12-12T08:37:01.890Z,20.90
2018-12-12T08:39:30.126Z,19.80
2018-12-12T08:41:58.385Z,20.80
2018-12-12T08:44:26.696Z,19.30
2018-12-12T08:46:55.159Z,18.43
2018-12-12T08:49:23.472Z,18.40
2018-12-12T08:51:51.691Z,20.67
2018-12-12T08:54:19.959Z,16.90
2018-12-12T08:56:48.536Z,20.23
2018-12-12T08:59:16.765Z,18.97
2018-12-12T09:01:45.181Z,18.57
2018-12-12T09:04:13.747Z,20.33
2018-12-12T09:06:42.003Z,20.17
2018-12-12T09:09:10.249Z,17.97
2018-12-12T09:11:38.676Z,19.60
2018-12-12T09:14:06.971Z,20.17
2018-12-12T09:16:35.555Z,19.57
2018-12-12T09:19:04.192Z,20.40
2018-12-12T09:21:32.419Z,18.77
2018-12-12T09:24:00.689Z,18.47
2018-12-12T09:26:30.021Z,19.87
2018-12-12T09:28:58.361Z,19.53
2018-12-12T09:31:26.640Z,18.80
2018-12-12T09:33:54.949Z,17.93
2018-12-12T09:36:23.238Z,16.50
2018-12-12T09:38:51.609Z,18.30
2018-12-12T09:41:19.826Z,17.30
2018-12-12T09:43:48.088Z,18.23
2018-12-12T09:46:16.508Z,16.50
2018-12-12T09:48:45.138Z,16.30
2018-12-12T09:51:13.415Z,16.10
2018-12-12T09:53:41.719Z,16.20
2018-12-12T09:56:10.959Z,16.03
2018-12-12T09:58:39.375Z,15.50
2018-12-12T10:01:07.641Z,15.63
2018-12-12T10:03:35.875Z,15.67
2018-12-12T10:06:04.197Z,15.30
2018-12-12T10:08:32.444Z,15.27
2018-12-12T10:11:00.682Z,14.50
2018-12-12T10:13:28.945Z,15.23
2018-12-12T10:15:57.191Z,15.00
2018-12-12T10:18:25.480Z,15.63
2018-12-12T10:20:53.837Z,14.13
2018-12-12T10:23:22.315Z,14.73
2018-12-12T10:25:50.548Z,14.90
2018-12-12T10:28:18.797Z,13.57
2018-12-12T10:30:47.117Z,14.60
2018-12-12T10:33:15.488Z,13.60
2018-12-12T10:35:43.704Z,13.67
2018-12-12T10:38:11.979Z,14.10
2018-12-12T10:40:40.213Z,12.90
2018-12-12T10:43:08.436Z,14.10
2018-12-12T10:45:36.679Z,13.90
2018-12-12T10:48:05.012Z,13.10
2018-12-12T10:50:33.272Z,13.57
2018-12-12T10:53:01.504Z,12.93
2018-12-12T10:55:29.745Z,13.47
2018-12-12T10:57:58.027Z,13.63
2018-12-12T11:00:26.308Z,12.77
2018-12-12T11:05:54.283Z,13.93
2018-12-12T11:08:22.597Z,14.30
2018-12-12T11:10:50.830Z,14.00
2018-12-12T11:13:19.190Z,14.30
2018-12-12T11:15:47.462Z,12.93
2018-12-12T11:18:16.266Z,13.83
2018-12-12T11:20:44.501Z,13.00
2018-12-12T11:23:12.763Z,14.33
2018-12-12T11:25:41.034Z,12.37
2018-12-12T11:28:09.264Z,14.57
2018-12-12T11:30:37.553Z,13.80
2018-12-12T11:33:05.840Z,14.83
2018-12-12T11:35:34.092Z,13.77
2018-12-12T11:38:02.366Z,14.20
2018-12-12T11:40:30.643Z,12.90
2018-12-12T11:42:58.877Z,14.03
2018-12-12T11:45:27.212Z,13.33
2018-12-12T11:47:55.467Z,13.97
2018-12-12T11:50:23.736Z,12.00
2018-12-12T11:52:52.197Z,13.37
2018-12-12T11:55:20.476Z,13.20
2018-12-12T11:57:48.781Z,12.93
2018-12-12T12:00:17.011Z,12.67
2018-12-12T12:02:45.302Z,12.53
2018-12-12T12:05:13.862Z,14.07
2018-12-12T12:07:42.171Z,10.70
2018-12-12T12:10:10.490Z,13.00
2018-12-12T12:12:38.737Z,12.70
2018-12-12T12:15:07.471Z,12.23
2018-12-12T12:17:36.094Z,12.70
2018-12-12T12:20:04.760Z,11.50
2018-12-12T12:22:33.054Z,12.07
2018-12-12T12:25:01.298Z,11.70
2018-12-12T12:27:29.503Z,12.27
2018-12-12T12:29:57.770Z,10.40
2018-12-12T12:32:26.030Z,12.07
2018-12-12T12:34:54.343Z,10.50
2018-12-12T12:37:22.615Z,10.70
2018-12-12T12:39:50.916Z,10.23
2018-12-12T12:42:19.187Z,10.60
2018-12-12T12:44:47.419Z,10.17
2018-12-12T12:47:15.993Z,10.80
2018-12-12T12:49:44.192Z,9.30
2018-12-12T12:52:12.586Z,9.57
2018-12-12T12:54:40.926Z,10.43
2018-12-12T12:57:09.197Z,10.23
2018-12-12T12:59:37.539Z,10.00
2018-12-12T13:02:05.888Z,10.53
2018-12-12T13:04:34.155Z,11.03
2018-12-12T13:07:02.523Z,9.53
2018-12-12T13:09:30.735Z,10.50
2018-12-12T13:11:59.074Z,9.60
2018-12-12T13:14:27.607Z,10.37
2018-12-12T13:16:55.853Z,9.87
2018-12-12T13:19:24.144Z,11.30
2018-12-12T13:21:52.372Z,10.03
2018-12-12T13:24:20.651Z,10.20
2018-12-12T13:26:53.452Z,10.30
2018-12-12T13:29:19.215Z,10.87
2018-12-12T13:31:47.472Z,10.73
2018-12-12T13:34:16.406Z,10.27
2018-12-12T13:36:44.826Z,10.27
2018-12-12T13:39:13.068Z,10.50
2018-12-12T13:41:41.349Z,9.90
2018-12-12T13:44:09.637Z,10.47
2018-12-12T13:46:37.868Z,11.07
2018-12-12T13:49:06.165Z,10.97
2018-12-12T13:51:34.395Z,11.53
2018-12-12T13:54:02.645Z,11.30
2018-12-12T13:56:30.943Z,10.77
2018-12-12T13:58:59.236Z,13.10
2018-12-12T14:01:27.512Z,12.03
2018-12-12T14:03:55.760Z,12.23
2018-12-12T14:06:24.035Z,12.87
2018-12-12T14:08:52.272Z,12.57
2018-12-12T14:11:20.529Z,11.03
2018-12-12T14:13:48.805Z,12.13
2018-12-12T14:16:17.023Z,11.73
2018-12-12T14:18:45.301Z,10.67
2018-12-12T14:21:13.682Z,12.47
2018-12-12T14:23:41.908Z,14.27
2018-12-12T14:26:10.171Z,13.60
2018-12-12T14:28:38.556Z,13.23
2018-12-12T14:31:06.799Z,14.53
2018-12-12T14:33:35.044Z,19.57
2018-12-12T14:36:03.525Z,16.73
2018-12-12T14:38:31.808Z,18.67
2018-12-12T14:41:00.068Z,13.97
2018-12-12T14:43:28.320Z,14.10
2018-12-12T14:46:00.146Z,13.87
2018-12-12T14:48:30.357Z,11.80
2018-12-12T14:50:58.858Z,12.93
2018-12-12T14:53:27.381Z,12.27
2018-12-12T14:55:55.644Z,12.63
2018-12-12T14:58:23.960Z,12.80
2018-12-12T15:00:52.258Z,13.73
2018-12-12T15:03:20.509Z,14.27
2018-12-12T15:05:48.764Z,11.77
2018-12-12T15:08:16.973Z,12.30
2018-12-12T15:10:45.240Z,13.23
2018-12-12T15:13:13.487Z,14.03
2018-12-12T15:15:41.755Z,14.37
2018-12-12T15:18:10.059Z,15.30
2018-12-12T15:20:38.307Z,15.37
2018-12-12T15:23:06.575Z,13.50
2018-12-12T15:25:34.846Z,13.63
2018-12-12T15:28:03.129Z,13.90
2018-12-12T15:30:31.482Z,14.17
2018-12-12T15:32:59.825Z,13.93
2018-12-12T15:35:28.048Z,13.97
2018-12-12T15:37:56.292Z,15.27
2018-12-12T15:40:24.618Z,14.87
2018-12-12T15:42:52.856Z,19.70
2018-12-12T15:45:21.512Z,23.20
2018-12-12T15:47:49.780Z,23.30
2018-12-12T15:50:18.046Z,20.27
2018-12-12T15:52:46.307Z,21.13
2018-12-12T15:55:14.548Z,19.50
2018-12-12T15:57:42.792Z,19.20
2018-12-12T16:00:11.495Z,22.20
2018-12-12T16:02:39.921Z,22.40
2018-12-12T16:05:08.151Z,17.87
2018-12-12T16:07:36.412Z,17.70
2018-12-12T16:10:06.262Z,16.23
2018-12-12T16:12:34.511Z,16.67
2018-12-12T16:15:02.880Z,17.90
2018-12-12T16:17:31.125Z,17.47
2018-12-12T16:20:00.293Z,18.43
2018-12-12T16:22:28.517Z,16.87
2018-12-12T16:24:56.829Z,16.03
2018-12-12T16:27:25.095Z,18.97
2018-12-12T16:29:53.362Z,19.20
2018-12-12T16:32:21.632Z,16.60
2018-12-12T16:34:55.504Z,15.43
2018-12-12T16:37:20.080Z,15.00
2018-12-12T16:39:48.413Z,15.07
2018-12-12T16:42:16.690Z,17.00
2018-12-12T16:44:44.911Z,16.70
2018-12-12T16:47:13.261Z,15.60
2018-12-12T16:49:41.629Z,18.03
2018-12-12T16:52:09.923Z,17.30
2018-12-12T16:54:38.515Z,16.30
2018-12-12T16:57:06.759Z,18.37
2018-12-12T16:59:35.042Z,17.20
2018-12-12T17:02:03.337Z,17.47
2018-12-12T17:04:31.596Z,18.23
2018-12-12T17:06:59.848Z,17.00
2018-12-12T17:09:28.133Z,16.53
2018-12-12T17:11:56.395Z,17.80
2018-12-12T17:14:26.089Z,18.77
2018-12-12T17:16:54.383Z,20.10
2018-12-12T17:19:22.634Z,17.63
2018-12-12T17:21:50.959Z,18.60
2018-12-12T17:24:19.204Z,18.20
2018-12-12T17:26:47.467Z,18.23
2018-12-12T17:29:15.767Z,18.10
2018-12-12T17:31:44.009Z,16.07
2018-12-12T17:34:12.243Z,17.60
2018-12-12T17:36:40.524Z,18.23
2018-12-12T17:39:08.787Z,16.50
2018-12-12T17:41:37.053Z,17.93
2018-12-12T17:44:05.816Z,17.77
2018-12-12T17:46:34.155Z,16.50
2018-12-12T17:51:34.555Z,17.03
2018-12-12T17:54:02.769Z,17.37
2018-12-12T17:56:31.060Z,18.87
2018-12-12T17:58:59.335Z,16.17
2018-12-12T18:01:27.613Z,18.20
2018-12-12T18:03:55.938Z,16.00
2018-12-12T18:06:24.175Z,25.57
2018-12-12T18:08:52.518Z,41.63
2018-12-12T18:11:20.942Z,37.30
2018-12-12T18:13:49.199Z,23.57
2018-12-12T18:16:17.592Z,21.07
2018-12-12T18:18:45.889Z,19.00
2018-12-12T18:21:14.255Z,20.50
2018-12-12T18:23:42.511Z,17.33
2018-12-12T18:26:10.793Z,17.50
2018-12-12T18:28:39.029Z,16.60
2018-12-12T18:31:07.296Z,15.27
2018-12-12T18:33:35.550Z,15.60
2018-12-12T18:36:03.896Z,17.07
2018-12-12T18:38:32.327Z,18.80
2018-12-12T18:41:00.596Z,19.00
2018-12-12T18:43:28.928Z,18.07
2018-12-12T18:45:57.185Z,18.33
2018-12-12T18:48:25.436Z,19.10
2018-12-12T18:50:53.693Z,20.93
2018-12-12T18:53:21.924Z,17.50
2018-12-12T18:55:50.240Z,16.40
2018-12-12T18:58:18.512Z,18.23
2018-12-12T19:00:46.804Z,19.40
2018-12-12T19:03:15.126Z,16.17
2018-12-12T19:05:43.351Z,19.70
2018-12-12T19:08:11.667Z,21.80
2018-12-12T19:10:39.897Z,19.10
2018-12-12T19:13:08.235Z,17.67
2018-12-12T19:15:36.560Z,18.17
2018-12-12T19:18:04.868Z,20.87
2018-12-12T19:20:33.172Z,21.27
2018-12-12T19:23:01.647Z,16.80
2018-12-12T19:25:30.092Z,24.77
2018-12-12T19:27:58.319Z,35.57
2018-12-12T19:30:26.584Z,25.77
2018-12-12T19:32:54.880Z,22.57
2018-12-12T19:35:23.135Z,24.17
2018-12-12T19:37:51.477Z,23.30
2018-12-12T19:40:19.718Z,22.77
2018-12-12T19:42:47.968Z,20.10
2018-12-12T19:45:16.291Z,25.40
2018-12-12T19:47:44.520Z,19.33
2018-12-12T19:50:12.779Z,17.40
2018-12-12T19:52:41.175Z,20.43
2018-12-12T19:55:09.567Z,23.57
2018-12-12T19:57:37.860Z,20.50
2018-12-12T20:00:06.460Z,22.90
2018-12-12T20:02:34.731Z,19.93
2018-12-12T20:05:03.492Z,29.80
2018-12-12T20:07:31.763Z,40.67
2018-12-12T20:10:00.026Z,31.20
2018-12-12T20:12:28.311Z,38.10
2018-12-12T20:14:56.571Z,24.63
2018-12-12T20:17:24.980Z,19.90
2018-12-12T20:19:53.165Z,18.20
2018-12-12T20:22:21.428Z,19.23
2018-12-12T20:24:49.696Z,17.87
2018-12-12T20:27:18.026Z,17.10
2018-12-12T20:29:46.313Z,20.10
2018-12-12T20:32:14.584Z,21.40
2018-12-12T20:34:42.837Z,17.63
2018-12-12T20:37:11.135Z,17.50
2018-12-12T20:39:39.420Z,20.00
2018-12-12T20:42:07.696Z,19.60
2018-12-12T20:44:36.008Z,18.30
2018-12-12T20:47:05.260Z,20.07
2018-12-12T20:49:33.543Z,18.53
2018-12-12T20:52:01.825Z,17.80
2018-12-12T20:54:30.048Z,17.13
2018-12-12T20:56:58.334Z,17.40
2018-12-12T20:59:26.549Z,19.73
2018-12-12T21:01:54.992Z,18.67
2018-12-12T21:04:23.243Z,20.10
2018-12-12T21:06:51.476Z,19.47
2018-12-12T21:09:19.777Z,18.47
2018-12-12T21:11:48.033Z,20.30
2018-12-12T21:14:16.313Z,17.43
2018-12-12T21:16:44.568Z,18.70
2018-12-12T21:19:12.815Z,18.30
2018-12-12T21:21:41.080Z,19.07
2018-12-12T21:24:09.368Z,18.23
2018-12-12T21:26:37.759Z,18.70
2018-12-12T21:29:05.994Z,18.70
2018-12-12T21:31:34.237Z,18.40
2018-12-12T21:34:02.482Z,19.17
2018-12-12T21:36:30.836Z,18.67
2018-12-12T21:38:59.088Z,18.70
2018-12-12T21:41:27.341Z,17.83
2018-12-12T21:43:55.584Z,19.40
2018-12-12T21:46:24.918Z,20.30
2018-12-12T21:48:53.171Z,19.60
2018-12-12T21:51:21.408Z,17.90
2018-12-12T21:53:49.776Z,19.13
2018-12-12T21:56:18.017Z,20.07
2018-12-12T21:58:46.318Z,19.00
2018-12-12T22:01:14.591Z,19.40
2018-12-12T22:03:42.921Z,20.90
2018-12-12T22:06:11.210Z,19.63
2018-12-12T22:08:39.460Z,19.00
2018-12-12T22:11:07.771Z,17.70
2018-12-12T22:13:36.124Z,19.80
2018-12-12T22:16:04.730Z,20.20
2018-12-12T22:18:33.879Z,18.93
2018-12-12T22:21:02.357Z,19.50
2018-12-12T22:23:30.654Z,20.13
2018-12-12T22:25:58.935Z,18.63
2018-12-12T22:28:27.198Z,18.80
2018-12-12T22:30:55.472Z,18.53
2018-12-12T22:33:23.734Z,19.10
2018-12-12T22:35:52.008Z,17.07
2018-12-12T22:38:20.246Z,17.60
2018-12-12T22:40:48.817Z,18.40
2018-12-12T22:43:17.053Z,19.17
2018-12-12T22:45:45.321Z,19.20
2018-12-12T22:48:20.322Z,17.60
2018-12-12T22:50:43.888Z,18.10
2018-12-12T22:53:12.168Z,18.00
2018-12-12T22:55:40.459Z,19.50
2018-12-12T22:58:08.750Z,18.57
2018-12-12T23:00:47.040Z,18.80
2018-12-12T23:03:15.339Z,19.77
2018-12-12T23:05:43.749Z,17.67
2018-12-12T23:08:12.160Z,18.50
2018-12-12T23:10:40.380Z,18.20
2018-12-12T23:13:08.629Z,18.17
2018-12-12T23:15:36.895Z,18.47
2018-12-12T23:18:05.150Z,18.57
2018-12-12T23:20:33.475Z,19.43
2018-12-12T23:23:01.899Z,17.93
2018-12-12T23:25:30.266Z,19.57
2018-12-12T23:27:58.546Z,18.33
2018-12-12T23:30:26.981Z,19.43
2018-12-12T23:32:55.261Z,20.23
2018-12-12T23:35:23.634Z,19.67
2018-12-12T23:37:51.992Z,19.20
2018-12-12T23:40:20.242Z,21.20
2018-12-12T23:42:48.495Z,20.17
2018-12-12T23:45:16.827Z,19.30
2018-12-12T23:47:45.363Z,20.10
2018-12-12T23:50:13.678Z,19.63
2018-12-12T23:52:42.016Z,21.00
2018-12-12T23:55:10.345Z,20.17
2018-12-12T23:57:38.620Z,19.60
